Antlers Park, Minnesota
Current Conditions -  °F | °C
As of 5:08 AM on Thursday 23 Oct 2014 (Local Time) from KLVN Reporting Station
Overcast Overcast  
Wind Chill: 10°   Ceiling: 1200
Heat Index: 10°   Visibility: 10mi
Dew Point:   Wind: 8mph
Humidity: 94%   Direction: 180°S
Pressure: 30"   Gusts: NA
Location:  44.6349°N, 93.283°W
Report Text: KLVN 231008Z AUTO 18007KT 10SM OVC012 10/09 A3000 RMK AO2
Loading
Personal Weather Stations






























Interactive Weather Map
Tropical Storm Tracking
New forecast layout! Learn more

10-Day Weather Forecast

Advertisements
Track Severe Weather on mobile